createdAt,value
2023-05-14T16:56:34.516Z,100883.30
2023-05-14T16:59:03.226Z,100884.02
2023-05-14T17:01:34.543Z,100881.08
2023-05-14T17:04:02.974Z,100876.59
2023-05-14T17:06:31.485Z,100877.27
2023-05-14T17:09:00.150Z,100877.94
2023-05-14T17:11:28.661Z,100875.05
2023-05-14T17:14:02.014Z,100874.30
2023-05-14T17:16:29.124Z,100874.58
2023-05-14T17:18:56.555Z,100875.63
2023-05-14T17:21:25.063Z,100868.99
2023-05-14T17:23:53.236Z,100870.92
2023-05-14T17:26:22.077Z,100875.52
2023-05-14T17:28:53.174Z,100874.80
2023-05-14T17:31:22.688Z,100872.20
2023-05-14T17:33:51.274Z,100866.75
2023-05-14T17:36:19.893Z,100870.95
2023-05-14T17:38:48.504Z,100871.73
2023-05-14T17:41:17.003Z,100872.05
2023-05-14T17:43:45.528Z,100874.39
2023-05-14T17:46:14.053Z,100876.21
2023-05-14T17:48:42.510Z,100871.98
2023-05-14T17:51:10.894Z,100872.67
2023-05-14T17:53:39.343Z,100870.35
2023-05-14T17:56:07.884Z,100874.82
2023-05-14T17:58:36.521Z,100872.02
2023-05-14T18:01:06.354Z,100871.56
2023-05-14T18:03:34.902Z,100871.60
2023-05-14T18:06:03.499Z,100869.84
2023-05-14T18:08:32.488Z,100867.27
2023-05-14T18:11:01.250Z,100866.40
2023-05-14T18:13:29.667Z,100869.70
2023-05-14T18:15:58.045Z,100873.27
2023-05-14T18:18:26.546Z,100868.81
2023-05-14T18:20:55.684Z,100867.89
2023-05-14T18:23:24.175Z,100868.07
2023-05-14T18:25:53.005Z,100870.40
2023-05-14T18:28:21.782Z,100868.40
2023-05-14T18:30:50.189Z,100867.83
2023-05-14T18:33:18.806Z,100868.39
2023-05-14T18:35:47.205Z,100870.02
2023-05-14T18:38:18.077Z,100871.66
2023-05-14T18:40:47.431Z,100874.30
2023-05-14T18:43:17.116Z,100872.75
2023-05-14T18:45:49.152Z,100874.39
2023-05-14T18:48:17.885Z,100871.94
2023-05-14T18:50:46.403Z,100873.62
2023-05-14T18:53:15.135Z,100876.77
2023-05-14T18:55:43.563Z,100878.09
2023-05-14T18:58:12.552Z,100879.63
2023-05-14T19:00:40.929Z,100883.38
2023-05-14T19:03:09.379Z,100884.15
2023-05-14T19:05:38.819Z,100886.67
2023-05-14T19:08:09.092Z,100888.95
2023-05-14T19:10:37.784Z,100885.77
2023-05-14T19:13:06.831Z,100885.31
2023-05-14T19:15:38.158Z,100883.13
2023-05-14T19:18:07.194Z,100887.57
2023-05-14T19:20:35.529Z,100886.63
2023-05-14T19:23:04.130Z,100881.79
2023-05-14T19:25:33.079Z,100882.56
2023-05-14T19:28:04.042Z,100881.92
2023-05-14T19:30:32.619Z,100883.14
2023-05-14T19:33:01.283Z,100893.10
2023-05-14T19:35:29.829Z,100891.86
2023-05-14T19:37:58.163Z,100885.31
2023-05-14T19:40:26.312Z,100889.27
2023-05-14T19:42:54.639Z,100886.16
2023-05-14T19:45:23.149Z,100884.67
2023-05-14T19:47:51.985Z,100884.14
2023-05-14T19:50:20.507Z,100883.30
2023-05-14T19:52:49.245Z,100883.11
2023-05-14T19:55:17.578Z,100881.27
2023-05-14T19:57:45.717Z,100878.15
2023-05-14T20:00:18.965Z,100874.73
2023-05-14T20:02:48.579Z,100871.95
2023-05-14T20:05:17.015Z,100869.48
2023-05-14T20:07:47.202Z,100862.27
2023-05-14T20:10:16.772Z,100863.27
2023-05-14T20:12:45.153Z,100861.18
2023-05-14T20:15:14.038Z,100856.83
2023-05-14T20:17:42.469Z,100857.94
2023-05-14T20:20:12.493Z,100852.44
2023-05-14T20:22:42.819Z,100846.46
2023-05-14T20:25:11.323Z,100843.41
2023-05-14T20:27:40.676Z,100842.55
2023-05-14T20:30:11.310Z,100838.98
2023-05-14T20:32:40.019Z,100844.41
2023-05-14T20:35:08.623Z,100841.98
2023-05-14T20:37:38.194Z,100838.52
2023-05-14T20:40:08.180Z,100839.02
2023-05-14T20:42:37.656Z,100838.16
2023-05-14T20:45:07.859Z,100835.72
2023-05-14T20:47:37.224Z,100833.36
2023-05-14T20:50:06.207Z,100829.56
2023-05-14T20:52:34.568Z,100827.42
2023-05-14T20:55:03.982Z,100827.17
2023-05-14T20:57:32.365Z,100824.89
2023-05-14T21:00:00.663Z,100823.63
2023-05-14T21:02:29.263Z,100820.53
2023-05-14T21:04:58.337Z,100820.13
2023-05-14T21:07:28.932Z,100813.81
2023-05-14T21:09:57.830Z,100810.78
2023-05-14T21:12:26.467Z,100806.20
2023-05-14T21:14:54.953Z,100802.02
2023-05-14T21:17:23.415Z,100800.01
2023-05-14T21:19:51.824Z,100799.80
2023-05-14T21:22:22.557Z,100798.66
2023-05-14T21:24:51.454Z,100803.06
2023-05-14T21:27:19.824Z,100797.23
2023-05-14T21:29:48.664Z,100790.10
2023-05-14T21:32:16.993Z,100790.41
2023-05-14T21:34:46.586Z,100793.80
2023-05-14T21:37:14.955Z,100795.73
2023-05-14T21:39:43.489Z,100789.76
2023-05-14T21:42:11.637Z,100789.52
2023-05-14T21:44:42.345Z,100789.39
2023-05-14T21:47:11.841Z,100786.88
2023-05-14T21:49:42.079Z,100784.73
2023-05-14T21:52:11.059Z,100779.28
2023-05-14T21:54:39.494Z,100781.83
2023-05-14T21:57:07.892Z,100779.15
2023-05-14T21:59:37.959Z,100776.37
2023-05-14T22:02:07.915Z,100769.54
2023-05-14T22:04:37.414Z,100770.19
2023-05-14T22:07:05.792Z,100766.52
2023-05-14T22:09:34.319Z,100765.13
2023-05-14T22:12:02.822Z,100759.61
2023-05-14T22:14:31.134Z,100760.92
2023-05-14T22:16:59.496Z,100754.53
2023-05-14T22:19:28.156Z,100749.11
2023-05-14T22:21:56.677Z,100750.11
2023-05-14T22:24:25.149Z,100744.67
2023-05-14T22:26:53.476Z,100739.88
2023-05-14T22:29:21.626Z,100737.02
2023-05-14T22:31:50.079Z,100731.27
2023-05-14T22:34:19.611Z,100732.78
2023-05-14T22:36:47.851Z,100730.16
2023-05-14T22:39:16.238Z,100728.58
2023-05-14T22:41:44.524Z,100720.94
2023-05-14T22:44:12.889Z,100717.12
2023-05-14T22:46:41.374Z,100718.34
2023-05-14T22:49:09.756Z,100715.70
2023-05-14T22:51:39.126Z,100711.65
2023-05-14T22:54:07.408Z,100705.63
2023-05-14T22:56:38.651Z,100700.23
2023-05-14T22:59:07.633Z,100700.79
2023-05-14T23:01:35.918Z,100697.17
2023-05-14T23:04:04.349Z,100694.46
2023-05-14T23:06:32.979Z,100691.63
2023-05-14T23:09:01.182Z,100685.80
2023-05-14T23:11:29.859Z,100685.73
2023-05-14T23:13:58.151Z,100679.88
2023-05-14T23:16:29.050Z,100675.76
2023-05-14T23:18:57.556Z,100672.85
2023-05-14T23:21:26.380Z,100667.65
2023-05-14T23:23:54.674Z,100663.71
2023-05-14T23:26:22.843Z,100657.34
2023-05-14T23:28:51.482Z,100656.58
2023-05-14T23:31:19.848Z,100656.11
2023-05-14T23:33:48.172Z,100646.86
2023-05-14T23:36:16.529Z,100646.20
2023-05-14T23:38:45.552Z,100638.29
2023-05-14T23:41:14.050Z,100640.34
2023-05-14T23:43:42.200Z,100635.23
2023-05-14T23:46:10.854Z,100631.34
2023-05-14T23:48:43.652Z,100629.61
2023-05-14T23:51:11.986Z,100623.98
2023-05-14T23:53:40.241Z,100619.13
2023-05-14T23:56:08.766Z,100621.33
2023-05-14T23:58:37.159Z,100616.66
